Time;durP1;ratioP1;P1;durP2;ratioP2;P2;SDS_P1;SDS_P2;PMS_P1;PMS_P2;Temp;Humidity;BMP_temperature;BMP_pressure;BME280_temperature;BME280_humidity;BME280_pressure;Samples;Min_cycle;Max_cycle;Signal;HPM_P1;HPM_P2
2023/08/07 00:00:12;;;;;;;11.45;0.15;;;13.80;99.90;;;;;;5037681;28;20037;-77
2023/08/07 00:02:38;;;;;;;10.38;0.98;;;13.70;99.90;;;;;;5038292;28;20021;-78
2023/08/07 00:05:04;;;;;;;8.25;0.98;;;13.70;99.90;;;;;;5037289;28;20037;-78
2023/08/07 00:07:30;;;;;;;3.92;0.10;;;13.70;99.90;;;;;;5036794;28;20025;-78
2023/08/07 00:09:55;;;;;;;6.85;0.50;;;13.60;99.90;;;;;;5038168;28;20036;-78
2023/08/07 00:12:21;;;;;;;6.57;0.65;;;13.60;99.90;;;;;;5038237;28;20457;-78
2023/08/07 00:14:53;;;;;;;9.07;0.35;;;13.60;99.90;;;;;;5036864;28;20021;-78
2023/08/07 00:17:19;;;;;;;8.40;0.47;;;;;;;;;;5036621;28;20034;-78
2023/08/07 00:19:44;;;;;;;7.90;0.32;;;13.60;99.90;;;;;;5036395;28;20036;-78
2023/08/07 00:22:10;;;;;;;4.65;0.55;;;13.60;99.90;;;;;;5037686;28;20017;-78
2023/08/07 00:24:35;;;;;;;6.75;0.20;;;13.80;99.90;;;;;;5037692;28;20025;-78
2023/08/07 00:27:01;;;;;;;6.88;0.40;;;13.80;99.90;;;;;;5036518;28;20021;-76
2023/08/07 00:29:27;;;;;;;7.63;1.05;;;13.60;99.90;;;;;;5036419;28;20028;-77
2023/08/07 00:31:52;;;;;;;10.13;1.25;;;13.60;99.90;;;;;;5037802;28;20036;-78
2023/08/07 00:34:18;;;;;;;9.68;1.52;;;13.50;99.90;;;;;;5037518;28;20029;-78
2023/08/07 00:36:44;;;;;;;6.20;0.30;;;13.50;99.90;;;;;;5037605;28;20045;-78
2023/08/07 00:39:09;;;;;;;10.15;1.20;;;13.60;99.90;;;;;;5038375;28;20041;-78
2023/08/07 00:41:35;;;;;;;11.75;0.30;;;13.60;99.90;;;;;;5037421;28;20063;-77
2023/08/07 00:44:01;;;;;;;5.97;0.55;;;13.60;99.90;;;;;;5037086;28;20093;-78
2023/08/07 00:46:30;;;;;;;5.93;0.50;;;13.60;99.90;;;;;;5037854;28;20029;-78
2023/08/07 00:48:56;;;;;;;8.23;0.73;;;13.40;99.90;;;;;;5037067;28;20104;-78
2023/08/07 00:51:24;;;;;;;8.32;0.30;;;13.60;99.90;;;;;;5036958;28;20029;-78
2023/08/07 00:53:50;;;;;;;4.32;0.25;;;13.60;99.90;;;;;;5036937;28;20029;-77
2023/08/07 00:56:17;;;;;;;4.80;0.20;;;13.60;99.90;;;;;;5037326;28;20032;-77
2023/08/07 00:58:43;;;;;;;7.30;0.93;;;13.60;99.90;;;;;;5034585;28;20024;-77
2023/08/07 01:01:09;;;;;;;6.55;0.75;;;13.60;99.90;;;;;;5034290;28;20159;-77
2023/08/07 01:03:34;;;;;;;4.22;0.57;;;13.50;99.90;;;;;;5035164;28;20108;-77
2023/08/07 01:06:01;;;;;;;5.25;0.10;;;13.50;99.90;;;;;;5035251;28;20025;-77
2023/08/07 01:08:27;;;;;;;4.25;0.45;;;13.50;99.90;;;;;;5035386;28;20026;-77
2023/08/07 01:10:53;;;;;;;3.75;0.35;;;13.50;99.90;;;;;;5035293;28;20026;-77
2023/08/07 01:13:55;;;;;;;3.53;0.40;;;13.50;99.90;;;;;;5035072;28;20556;-77
2023/08/07 01:16:47;;;;;;;6.25;0.50;;;13.50;99.90;;;;;;5027114;28;20030;-77
2023/08/07 01:19:24;;;;;;;2.05;0.25;;;13.40;99.90;;;;;;5034021;28;20028;-77
2023/08/07 01:21:50;;;;;;;5.53;0.10;;;13.40;99.90;;;;;;5036026;28;20029;-77
2023/08/07 01:24:15;;;;;;;4.13;0.35;;;13.40;99.90;;;;;;5035115;28;20083;-78
2023/08/07 01:26:44;;;;;;;5.07;0.47;;;13.40;99.90;;;;;;5034980;28;20481;-77
2023/08/07 01:29:26;;;;;;;4.70;0.22;;;13.40;99.90;;;;;;5034777;28;20038;-78
2023/08/07 01:31:53;;;;;;;3.50;0.10;;;13.40;99.90;;;;;;5035094;28;20053;-78
2023/08/07 01:34:23;;;;;;;4.32;0.20;;;13.40;99.90;;;;;;5034942;28;20366;-77
2023/08/07 01:36:50;;;;;;;6.53;0.40;;;13.40;99.90;;;;;;5035014;28;20022;-78
2023/08/07 01:39:17;;;;;;;4.15;0.13;;;13.40;99.90;;;;;;5033713;28;20072;-77
2023/08/07 01:41:43;;;;;;;4.68;0.10;;;13.40;99.90;;;;;;5033781;28;20018;-77
2023/08/07 01:44:09;;;;;;;2.30;0.32;;;13.50;99.90;;;;;;5034667;28;20028;-77
2023/08/07 01:46:34;;;;;;;3.65;0.10;;;13.40;99.90;;;;;;5035210;28;20033;-78
2023/08/07 01:49:00;;;;;;;2.53;0.00;;;13.50;99.90;;;;;;5033344;28;20020;-77
2023/08/07 01:51:25;;;;;;;7.25;0.30;;;13.40;99.90;;;;;;5034666;28;20029;-78
2023/08/07 01:53:51;;;;;;;3.78;0.00;;;13.40;99.90;;;;;;5033223;28;20026;-78
2023/08/07 01:56:17;;;;;;;4.38;0.10;;;13.40;99.90;;;;;;5034556;28;20018;-78
2023/08/07 01:58:42;;;;;;;2.88;0.05;;;13.40;99.90;;;;;;5034490;28;20025;-77
2023/08/07 02:01:08;;;;;;;8.90;0.70;;;13.40;99.90;;;;;;5034916;28;20025;-78
2023/08/07 02:03:33;;;;;;;2.35;0.00;;;13.40;99.90;;;;;;5034993;28;20025;-77
2023/08/07 02:05:59;;;;;;;4.97;0.47;;;13.40;99.90;;;;;;5034327;28;20033;-77
2023/08/07 02:08:24;;;;;;;2.15;0.15;;;13.50;99.90;;;;;;5034319;28;20057;-77
2023/08/07 02:10:50;;;;;;;3.20;0.10;;;13.40;99.90;;;;;;5033081;28;20121;-78
2023/08/07 02:13:15;;;;;;;6.35;0.55;;;13.40;99.90;;;;;;5034301;28;20057;-77
2023/08/07 02:15:41;;;;;;;1.95;0.10;;;13.40;99.90;;;;;;5033726;28;20550;-77
2023/08/07 02:18:06;;;;;;;4.65;0.30;;;13.40;99.90;;;;;;5034083;28;20420;-78
2023/08/07 02:20:32;;;;;;;7.80;0.50;;;13.40;99.90;;;;;;5034274;28;20075;-78
2023/08/07 02:22:58;;;;;;;4.05;0.00;;;13.40;99.90;;;;;;5034642;28;20017;-77
2023/08/07 02:25:23;;;;;;;7.25;0.50;;;13.80;99.90;;;;;;5034029;28;20101;-77
2023/08/07 02:27:49;;;;;;;4.78;0.25;;;13.50;99.90;;;;;;5032642;28;20529;-78
2023/08/07 02:30:14;;;;;;;2.35;0.10;;;13.50;99.90;;;;;;5034568;28;20036;-78
2023/08/07 02:32:42;;;;;;;6.20;0.38;;;13.50;99.90;;;;;;5033908;28;20026;-78
2023/08/07 02:35:08;;;;;;;3.90;0.10;;;13.60;99.90;;;;;;5033980;28;20010;-77
2023/08/07 02:37:34;;;;;;;4.47;0.30;;;13.50;99.90;;;;;;5032636;28;20040;-77
2023/08/07 02:39:59;;;;;;;6.72;0.75;;;13.50;99.90;;;;;;5032528;28;20022;-78
2023/08/07 02:42:25;;;;;;;5.45;0.40;;;13.60;99.90;;;;;;5032646;28;20022;-78
2023/08/07 02:44:50;;;;;;;4.30;0.40;;;13.50;99.90;;;;;;5033581;28;20041;-77
2023/08/07 02:47:16;;;;;;;4.47;0.40;;;13.60;99.90;;;;;;5032596;28;20023;-78
2023/08/07 02:49:41;;;;;;;7.03;0.80;;;13.50;99.90;;;;;;5033882;28;20068;-78
2023/08/07 02:52:07;;;;;;;12.07;1.05;;;13.60;99.90;;;;;;5033585;28;20506;-77
2023/08/07 02:54:32;;;;;;;12.15;0.85;;;13.70;99.90;;;;;;5033589;28;20030;-78
2023/08/07 02:56:58;;;;;;;6.20;0.30;;;13.70;99.90;;;;;;5033972;28;20489;-77
2023/08/07 02:59:23;;;;;;;9.88;0.50;;;13.70;99.90;;;;;;5033312;28;20034;-77
2023/08/07 03:01:50;;;;;;;6.47;0.85;;;14.70;99.90;;;;;;5032975;28;20022;-77
2023/08/07 03:04:15;;;;;;;5.40;0.20;;;13.70;99.90;;;;;;5033654;28;20496;-77
2023/08/07 03:06:41;;;;;;;6.10;0.47;;;13.70;99.90;;;;;;5033428;28;20022;-77
2023/08/07 03:09:07;;;;;;;11.27;0.90;;;13.70;99.90;;;;;;5033729;28;20033;-77
2023/08/07 03:11:32;;;;;;;8.90;0.50;;;13.70;99.90;;;;;;5033844;28;20025;-77
2023/08/07 03:13:58;;;;;;;8.23;0.88;;;13.70;99.90;;;;;;5033182;28;20108;-78
2023/08/07 03:16:23;;;;;;;6.22;0.30;;;13.80;99.90;;;;;;5033347;28;20096;-77
2023/08/07 03:18:49;;;;;;;5.35;0.60;;;13.70;99.90;;;;;;5031886;28;20025;-77
2023/08/07 03:21:15;;;;;;;4.85;0.20;;;13.70;99.90;;;;;;5031833;28;20022;-77
2023/08/07 03:23:40;;;;;;;5.13;0.20;;;13.60;99.90;;;;;;5033586;28;20029;-78
2023/08/07 03:26:08;;;;;;;6.90;0.88;;;13.60;99.90;;;;;;5033243;28;20022;-76
2023/08/07 03:28:35;;;;;;;8.90;1.05;;;13.60;99.90;;;;;;5036083;28;20393;-77
2023/08/07 03:31:00;;;;;;;4.60;0.38;;;13.60;99.90;;;;;;5035858;28;20025;-78
2023/08/07 03:33:26;;;;;;;1.58;0.30;;;13.60;99.90;;;;;;5037014;28;20052;-77
2023/08/07 03:35:52;;;;;;;3.50;0.03;;;13.60;99.90;;;;;;5035699;28;20429;-77
2023/08/07 03:38:18;;;;;;;4.85;0.20;;;13.60;99.90;;;;;;5036964;28;20036;-77
2023/08/07 03:40:43;;;;;;;2.25;0.10;;;13.60;99.90;;;;;;5037070;28;20025;-77
2023/08/07 03:43:09;;;;;;;16.10;0.73;;;13.60;99.90;;;;;;5037668;28;20057;-77
2023/08/07 03:45:35;;;;;;;3.78;0.00;;;13.50;99.90;;;;;;5037121;28;20018;-77
2023/08/07 03:48:00;;;;;;;3.50;0.00;;;13.60;99.90;;;;;;5037206;28;20026;-77
2023/08/07 03:50:26;;;;;;;4.55;0.25;;;13.80;99.90;;;;;;5036873;28;20508;-77
2023/08/07 03:52:52;;;;;;;9.20;0.55;;;13.50;99.90;;;;;;5035516;28;20052;-78
2023/08/07 03:55:18;;;;;;;2.75;0.10;;;13.60;99.90;;;;;;5036528;28;20025;-77
2023/08/07 03:57:44;;;;;;;5.05;0.30;;;13.60;99.90;;;;;;5035272;28;20131;-77
2023/08/07 04:00:10;;;;;;;3.88;0.00;;;13.50;99.90;;;;;;5035135;28;20038;-77
2023/08/07 04:02:35;;;;;;;3.85;0.30;;;13.60;99.90;;;;;;5036455;28;20029;-77
2023/08/07 04:05:01;;;;;;;2.47;0.03;;;13.60;99.90;;;;;;5036936;28;20068;-77
2023/08/07 04:07:26;;;;;;;4.53;0.38;;;13.60;99.90;;;;;;5036381;28;20030;-77
2023/08/07 04:09:52;;;;;;;4.25;0.63;;;13.60;99.90;;;;;;5035084;28;20021;-77
2023/08/07 04:12:18;;;;;;;3.70;0.20;;;13.70;99.90;;;;;;5036205;28;20028;-77
2023/08/07 04:14:43;;;;;;;8.93;0.65;;;13.70;99.90;;;;;;5035926;28;20040;-77
2023/08/07 04:17:09;;;;;;;4.07;0.15;;;13.60;99.90;;;;;;5034945;28;20385;-77
2023/08/07 04:19:34;;;;;;;5.22;0.45;;;13.60;99.90;;;;;;5036273;28;20100;-77
2023/08/07 04:22:00;;;;;;;8.23;1.05;;;13.60;99.90;;;;;;5034921;28;20025;-77
2023/08/07 04:24:25;;;;;;;3.58;0.30;;;13.60;99.90;;;;;;5036074;28;20030;-77
2023/08/07 04:26:51;;;;;;;6.43;0.15;;;13.60;99.90;;;;;;5034799;28;20021;-77
2023/08/07 04:29:16;;;;;;;4.00;0.28;;;13.60;99.90;;;;;;5036105;28;20503;-77
2023/08/07 04:31:42;;;;;;;8.82;0.20;;;13.60;99.90;;;;;;5036447;28;20036;-77
2023/08/07 04:34:08;;;;;;;5.22;0.70;;;13.60;99.90;;;;;;5034596;28;20071;-77
2023/08/07 04:36:34;;;;;;;6.60;0.47;;;13.60;99.90;;;;;;5034666;28;20029;-77
2023/08/07 04:38:59;;;;;;;7.00;0.10;;;13.50;99.90;;;;;;5035459;28;20026;-77
2023/08/07 04:41:25;;;;;;;4.18;0.13;;;13.50;99.90;;;;;;5036013;28;20033;-77
2023/08/07 04:43:51;;;;;;;7.55;0.32;;;13.50;99.90;;;;;;5035866;28;20025;-77
2023/08/07 04:46:16;;;;;;;7.10;0.63;;;13.50;99.90;;;;;;5035717;28;20381;-77
2023/08/07 04:48:42;;;;;;;2.03;0.10;;;13.50;99.90;;;;;;5035770;28;20021;-77
2023/08/07 04:51:07;;;;;;;7.40;0.20;;;13.50;99.90;;;;;;5035602;28;20037;-77
2023/08/07 04:53:33;;;;;;;4.57;0.20;;;13.60;99.90;;;;;;5035776;28;20393;-77
2023/08/07 04:55:59;;;;;;;4.25;0.68;;;14.20;99.90;;;;;;5035699;28;20028;-77
2023/08/07 04:58:25;;;;;;;9.55;1.17;;;13.60;99.90;;;;;;5034168;28;20415;-77
2023/08/07 05:00:57;;;;;;;3.38;0.10;;;13.70;99.90;;;;;;5034172;28;20116;-77
2023/08/07 05:03:24;;;;;;;11.15;0.40;;;13.70;99.90;;;;;;5036220;28;20416;-77
2023/08/07 05:05:49;;;;;;;4.10;0.45;;;13.70;99.90;;;;;;5035328;28;20487;-77
2023/08/07 05:08:16;;;;;;;4.32;0.43;;;13.80;99.90;;;;;;5035952;28;20036;-77
2023/08/07 05:10:42;;;;;;;4.22;0.20;;;13.80;99.90;;;;;;5035347;28;20037;-77
2023/08/07 05:13:07;;;;;;;2.65;0.17;;;13.80;99.90;;;;;;5034003;28;20048;-78
2023/08/07 05:15:33;;;;;;;4.40;0.65;;;13.80;99.90;;;;;;5034034;28;20025;-77
2023/08/07 05:17:58;;;;;;;4.00;0.25;;;14.20;99.90;;;;;;5035895;28;20480;-77
2023/08/07 05:20:24;;;;;;;5.20;0.20;;;13.80;99.90;;;;;;5035173;28;20456;-77
2023/08/07 05:22:50;;;;;;;7.32;0.20;;;13.80;99.90;;;;;;5035117;28;20025;-77
2023/08/07 05:25:16;;;;;;;9.82;0.40;;;13.80;99.90;;;;;;5033779;28;20033;-78
2023/08/07 05:27:45;;;;;;;3.75;0.32;;;13.90;99.90;;;;;;5035093;28;20096;-77
2023/08/07 05:30:11;;;;;;;7.75;0.80;;;13.90;99.90;;;;;;5035611;28;20440;-77
2023/08/07 05:32:37;;;;;;;8.55;1.10;;;13.90;99.90;;;;;;5033592;28;20439;-77
2023/08/07 05:35:05;;;;;;;9.43;1.13;;;14.00;99.90;;;;;;5034992;28;20017;-77
2023/08/07 05:37:31;;;;;;;9.18;0.90;;;13.90;99.90;;;;;;5033640;28;20037;-77
2023/08/07 05:39:57;;;;;;;4.85;0.30;;;14.40;99.90;;;;;;5034895;28;20018;-77
2023/08/07 05:42:23;;;;;;;5.82;0.20;;;14.00;99.90;;;;;;5034878;28;20056;-77
2023/08/07 05:44:48;;;;;;;4.20;0.38;;;14.10;99.90;;;;;;5034923;28;20026;-77
2023/08/07 05:47:14;;;;;;;7.43;0.82;;;14.90;99.90;;;;;;5033585;28;20159;-77
2023/08/07 05:49:39;;;;;;;7.65;0.20;;;14.10;99.90;;;;;;5033804;28;20100;-77
2023/08/07 05:52:05;;;;;;;7.05;0.47;;;14.10;99.90;;;;;;5034649;28;20068;-78
2023/08/07 05:54:31;;;;;;;2.70;0.45;;;14.10;99.90;;;;;;5034540;28;20022;-78
2023/08/07 05:56:57;;;;;;;3.38;0.20;;;14.20;99.90;;;;;;5035159;28;20529;-77
2023/08/07 05:59:22;;;;;;;11.55;1.30;;;14.20;99.90;;;;;;5033265;28;20025;-77
2023/08/07 06:01:48;;;;;;;9.60;0.52;;;14.20;99.90;;;;;;5035121;28;20052;-77
2023/08/07 06:04:14;;;;;;;13.20;1.27;;;14.20;99.90;;;;;;5033163;28;20025;-78
2023/08/07 06:06:40;;;;;;;4.22;0.25;;;14.20;99.90;;;;;;5034548;28;20108;-77
2023/08/07 06:09:06;;;;;;;7.25;0.60;;;14.30;99.90;;;;;;5034263;28;20045;-77
2023/08/07 06:11:32;;;;;;;8.13;0.52;;;14.40;99.90;;;;;;5033290;28;20068;-78
2023/08/07 06:13:58;;;;;;;6.75;1.23;;;14.50;99.90;;;;;;5032971;28;20038;-78
2023/08/07 06:16:24;;;;;;;8.73;0.65;;;14.70;99.90;;;;;;5034376;28;20039;-78
2023/08/07 06:18:50;;;;;;;7.22;0.25;;;14.70;99.90;;;;;;5033082;28;20476;-77
2023/08/07 06:21:15;;;;;;;5.43;0.40;;;15.80;99.90;;;;;;5032941;28;20025;-77
2023/08/07 06:23:41;;;;;;;3.63;0.22;;;14.90;99.90;;;;;;5032789;28;20090;-78
2023/08/07 06:26:08;;;;;;;5.65;0.32;;;14.90;99.90;;;;;;5034115;28;20534;-77
2023/08/07 06:28:36;;;;;;;8.63;0.57;;;15.00;99.90;;;;;;5034196;28;20148;-78
2023/08/07 06:31:07;;;;;;;8.45;1.90;;;15.00;99.90;;;;;;5032806;28;20041;-78
2023/08/07 06:33:35;;;;;;;6.85;0.70;;;15.00;99.90;;;;;;5033066;28;20143;-78
2023/08/07 06:36:02;;;;;;;7.20;1.00;;;15.00;99.90;;;;;;5033959;28;20024;-78
2023/08/07 06:38:27;;;;;;;9.48;0.82;;;15.00;99.90;;;;;;5033949;28;20029;-77
2023/08/07 06:40:53;;;;;;;5.47;0.13;;;15.80;99.90;;;;;;5033975;28;20021;-78
2023/08/07 06:43:19;;;;;;;7.78;0.15;;;15.70;99.90;;;;;;5034432;28;20362;-77
2023/08/07 06:45:49;;;;;;;5.20;0.93;;;15.60;99.90;;;;;;5032531;28;20028;-77
2023/08/07 06:48:14;;;;;;;4.78;0.38;;;15.80;99.90;;;;;;5034369;28;20055;-78
2023/08/07 06:50:40;;;;;;;3.70;0.20;;;16.00;99.90;;;;;;5033889;28;20464;-78
2023/08/07 06:53:06;;;;;;;2.42;0.40;;;16.00;99.90;;;;;;5033954;28;20029;-77
2023/08/07 06:55:32;;;;;;;8.30;0.65;;;16.10;99.90;;;;;;5034120;28;20025;-78
2023/08/07 06:57:58;;;;;;;4.50;0.52;;;16.00;99.90;;;;;;5032422;28;20025;-78
2023/08/07 07:00:24;;;;;;;2.05;0.05;;;16.00;99.90;;;;;;5033626;28;20040;-77
2023/08/07 07:02:49;;;;;;;4.28;0.40;;;16.00;99.90;;;;;;5033233;28;20030;-78
2023/08/07 07:05:15;;;;;;;3.78;0.05;;;15.90;99.90;;;;;;5033628;28;20068;-77
2023/08/07 07:07:40;;;;;;;6.07;0.90;;;15.80;99.90;;;;;;5033429;28;20029;-78
2023/08/07 07:10:07;;;;;;;4.53;0.98;;;15.70;99.90;;;;;;5033368;28;20029;-77
2023/08/07 07:12:32;;;;;;;6.60;1.00;;;15.60;99.90;;;;;;5032050;28;20018;-77
2023/08/07 07:14:58;;;;;;;11.45;1.58;;;15.50;99.90;;;;;;5033191;28;20044;-77
2023/08/07 07:17:23;;;;;;;6.13;0.30;;;15.30;99.90;;;;;;5033261;28;20032;-77
2023/08/07 07:19:49;;;;;;;5.30;0.55;;;15.30;99.90;;;;;;5033205;28;20017;-77
2023/08/07 07:22:14;;;;;;;5.22;0.47;;;15.20;99.90;;;;;;5031902;28;20121;-77
2023/08/07 07:24:40;;;;;;;5.78;0.68;;;15.20;99.90;;;;;;5033085;28;20026;-77
2023/08/07 07:27:06;;;;;;;8.85;0.70;;;15.50;99.90;;;;;;5031904;28;20064;-77
2023/08/07 07:29:31;;;;;;;8.88;0.85;;;15.30;99.90;;;;;;5031949;28;20034;-77
2023/08/07 07:31:57;;;;;;;7.30;0.35;;;15.60;99.90;;;;;;5031822;28;20120;-77
2023/08/07 07:34:23;;;;;;;7.13;0.65;;;16.50;99.90;;;;;;5032903;28;20068;-77
2023/08/07 07:36:48;;;;;;;6.85;1.20;;;16.00;99.90;;;;;;5031734;28;20051;-77
2023/08/07 07:39:14;;;;;;;6.32;0.75;;;16.20;99.90;;;;;;5032082;28;20022;-77
2023/08/07 07:41:39;;;;;;;7.78;0.57;;;16.60;99.90;;;;;;5032969;28;20025;-77
2023/08/07 07:44:05;;;;;;;10.38;1.02;;;16.30;99.90;;;;;;5032982;28;20485;-77
2023/08/07 07:46:32;;;;;;;5.03;0.40;;;16.30;99.90;;;;;;5031963;28;20025;-77
2023/08/07 07:48:58;;;;;;;3.58;0.38;;;16.40;99.90;;;;;;5032930;28;20409;-77
2023/08/07 07:51:24;;;;;;;4.88;0.20;;;16.40;99.90;;;;;;5033187;28;20030;-77
2023/08/07 07:53:49;;;;;;;9.10;0.55;;;16.60;99.90;;;;;;5032712;28;20030;-77
2023/08/07 07:56:15;;;;;;;9.10;0.75;;;16.80;99.90;;;;;;5032883;28;20508;-77
2023/08/07 07:58:41;;;;;;;3.25;0.10;;;17.00;99.90;;;;;;5032992;28;20092;-78
2023/08/07 08:01:07;;;;;;;5.03;0.17;;;17.00;99.90;;;;;;5033822;28;20017;-77
2023/08/07 08:03:33;;;;;;;7.47;0.20;;;16.90;99.90;;;;;;5032953;28;20067;-77
2023/08/07 08:05:59;;;;;;;7.65;0.32;;;16.70;99.90;;;;;;5032817;28;20057;-77
2023/08/07 08:08:24;;;;;;;9.40;0.47;;;16.80;99.90;;;;;;5032627;28;20108;-77
2023/08/07 08:10:51;;;;;;;8.10;1.33;;;16.90;99.90;;;;;;5033065;28;20061;-77
2023/08/07 08:13:17;;;;;;;5.60;0.38;;;17.20;99.90;;;;;;5033710;28;20108;-77
2023/08/07 08:15:43;;;;;;;7.05;1.15;;;17.20;99.90;;;;;;5036321;28;20125;-77
2023/08/07 08:18:09;;;;;;;11.40;0.80;;;17.00;99.90;;;;;;5036660;28;20028;-77
2023/08/07 08:20:34;;;;;;;7.15;0.90;;;16.80;99.90;;;;;;5036182;28;20101;-77
2023/08/07 08:23:00;;;;;;;5.63;0.82;;;17.10;99.90;;;;;;5036278;28;20032;-77
2023/08/07 08:25:26;;;;;;;6.63;0.52;;;17.00;99.90;;;;;;5036073;28;20572;-77
2023/08/07 08:27:51;;;;;;;3.83;0.25;;;17.10;99.90;;;;;;5034924;28;20496;-77
2023/08/07 08:30:17;;;;;;;6.50;0.55;;;17.10;99.90;;;;;;5035984;28;20099;-77
2023/08/07 08:32:43;;;;;;;2.83;0.47;;;17.00;99.90;;;;;;5035885;28;20037;-77
2023/08/07 08:35:09;;;;;;;3.78;0.30;;;17.10;99.90;;;;;;5036004;28;20026;-77
2023/08/07 08:37:35;;;;;;;6.72;0.10;;;17.20;99.90;;;;;;5036144;28;20017;-77
2023/08/07 08:40:01;;;;;;;4.55;0.70;;;17.30;99.90;;;;;;5034823;28;20017;-77
2023/08/07 08:42:27;;;;;;;8.43;0.88;;;17.50;99.90;;;;;;5035870;28;20107;-77
2023/08/07 08:44:54;;;;;;;2.85;0.32;;;17.70;99.90;;;;;;5034600;28;20053;-77
2023/08/07 08:47:26;;;;;;;4.55;0.10;;;17.90;99.90;;;;;;5034567;28;20120;-77
2023/08/07 08:50:02;;;;;;;3.25;0.65;;;17.90;99.90;;;;;;5035660;28;20057;-77
2023/08/07 08:52:28;;;;;;;9.68;0.38;;;18.00;99.90;;;;;;5034451;28;20017;-77
2023/08/07 08:54:55;;;;;;;4.57;1.17;;;17.90;99.90;;;;;;5035406;28;20013;-77
2023/08/07 08:57:22;;;;;;;2.95;0.17;;;17.90;99.90;;;;;;5034311;28;20020;-77
2023/08/07 08:59:48;;;;;;;1.98;0.20;;;17.60;99.90;;;;;;5034195;28;20049;-77
2023/08/07 09:02:15;;;;;;;4.38;0.17;;;17.50;99.90;;;;;;5036020;28;20132;-77
2023/08/07 09:04:42;;;;;;;2.50;0.20;;;17.50;99.90;;;;;;5035555;28;20064;-77
2023/08/07 09:07:09;;;;;;;7.63;1.02;;;17.40;99.90;;;;;;5035452;28;20030;-77
2023/08/07 09:09:35;;;;;;;4.25;0.30;;;17.30;99.90;;;;;;5035667;28;20073;-77
2023/08/07 09:12:02;;;;;;;5.40;0.40;;;17.30;99.90;;;;;;5035396;28;20021;-77
2023/08/07 09:14:33;;;;;;;9.82;0.73;;;16.50;99.90;;;;;;5035043;28;20022;-78
2023/08/07 09:17:01;;;;;;;4.68;0.20;;;17.00;99.90;;;;;;5033869;28;20032;-77
2023/08/07 09:19:27;;;;;;;4.20;0.27;;;17.00;99.90;;;;;;5035412;28;20472;-77
2023/08/07 09:21:53;;;;;;;2.80;1.08;;;17.10;99.90;;;;;;5035670;28;20057;-77
2023/08/07 09:24:21;;;;;;;1.27;0.05;;;17.30;99.90;;;;;;5033405;28;20444;-77
2023/08/07 09:26:47;;;;;;;4.38;0.10;;;17.50;99.90;;;;;;5033684;28;20176;-77
2023/08/07 09:29:13;;;;;;;3.42;0.10;;;17.60;99.90;;;;;;5035133;28;20033;-77
2023/08/07 09:31:39;;;;;;;5.05;0.10;;;17.70;99.90;;;;;;5035168;28;20108;-77
2023/08/07 09:34:05;;;;;;;4.43;0.05;;;17.90;99.90;;;;;;5034734;28;20100;-77
2023/08/07 09:36:31;;;;;;;4.13;0.57;;;18.00;99.90;;;;;;5035051;28;20392;-77
2023/08/07 09:39:00;;;;;;;7.57;0.17;;;18.20;99.90;;;;;;5034836;28;20020;-77
2023/08/07 09:41:27;;;;;;;7.15;0.47;;;18.30;99.90;;;;;;5033689;28;20030;-78
2023/08/07 09:43:53;;;;;;;6.65;0.75;;;18.30;99.90;;;;;;5034783;28;20018;-77
2023/08/07 09:46:18;;;;;;;8.00;0.22;;;18.30;99.90;;;;;;5035679;28;20469;-78
2023/08/07 09:48:44;;;;;;;1.58;0.10;;;18.40;99.90;;;;;;5036439;28;20029;-78
2023/08/07 09:51:10;;;;;;;2.10;0.10;;;18.40;99.90;;;;;;5034075;28;20087;-77
2023/08/07 09:53:37;;;;;;;1.23;0.00;;;18.40;99.90;;;;;;5034872;28;20389;-77
2023/08/07 09:56:03;;;;;;;2.13;0.00;;;18.20;99.90;;;;;;5036689;28;20503;-77
2023/08/07 09:58:29;;;;;;;8.18;0.40;;;18.00;99.90;;;;;;5034014;28;20113;-78
2023/08/07 10:00:59;;;;;;;7.95;0.90;;;17.80;99.90;;;;;;5035107;28;20030;-78
2023/08/07 10:03:25;;;;;;;10.32;1.00;;;17.60;99.90;;;;;;5035621;28;20044;-78
2023/08/07 10:05:51;;;;;;;4.78;0.32;;;17.40;99.90;;;;;;5035763;28;20137;-78
2023/08/07 10:08:17;;;;;;;3.00;0.35;;;17.30;99.90;;;;;;5034457;28;20481;-78
2023/08/07 10:10:44;;;;;;;2.63;0.38;;;17.20;99.90;;;;;;5035836;28;20026;-78
2023/08/07 10:13:13;;;;;;;2.35;0.85;;;17.20;99.90;;;;;;5034118;28;20037;-78
2023/08/07 10:15:40;;;;;;;3.78;0.40;;;17.30;99.90;;;;;;5035257;28;20491;-78
2023/08/07 10:18:06;;;;;;;11.65;0.60;;;17.60;99.90;;;;;;5034946;28;20472;-77
2023/08/07 10:20:32;;;;;;;2.17;0.40;;;17.70;99.90;;;;;;5036253;28;20028;-78
2023/08/07 10:23:08;;;;;;;3.17;0.25;;;18.00;99.90;;;;;;5035488;28;20017;-78
2023/08/07 10:25:37;;;;;;;2.38;0.08;;;18.30;99.90;;;;;;5035550;28;20022;-78
2023/08/07 10:28:05;;;;;;;3.47;0.35;;;18.60;99.90;;;;;;5034473;28;20064;-78
2023/08/07 10:30:32;;;;;;;3.42;0.45;;;19.10;99.90;;;;;;5035791;28;20036;-77
2023/08/07 10:32:59;;;;;;;6.57;0.22;;;19.40;99.90;;;;;;5035349;28;20021;-78
2023/08/07 10:35:34;;;;;;;9.50;0.30;;;19.60;99.90;;;;;;5034224;28;20017;-78
2023/08/07 10:38:09;;;;;;;5.60;1.00;;;19.80;99.90;;;;;;5035302;28;20022;-77
2023/08/07 10:41:03;;;;;;;5.38;0.45;;;19.50;99.90;;;;;;5032654;28;20021;-77
2023/08/07 10:43:29;;;;;;;4.95;0.10;;;19.40;99.90;;;;;;5034709;28;20033;-78
2023/08/07 10:46:03;;;;;;;5.45;0.08;;;19.20;99.90;;;;;;5034947;28;20112;-78
2023/08/07 10:48:29;;;;;;;4.95;0.52;;;19.10;99.90;;;;;;5034908;28;20025;-77
2023/08/07 10:50:54;;;;;;;3.83;0.10;;;19.00;99.90;;;;;;5033222;28;20485;-77
2023/08/07 10:53:31;;;;;;;1.48;0.08;;;19.00;99.90;;;;;;5032982;28;20059;-77
2023/08/07 10:56:04;;;;;;;4.35;0.50;;;19.10;99.90;;;;;;5035084;28;20039;-78
2023/08/07 10:58:31;;;;;;;19.10;0.52;;;19.10;99.90;;;;;;5035047;28;20080;-78
2023/08/07 11:01:17;;;;;;;4.75;0.28;;;19.00;99.90;;;;;;5034244;28;20041;-77
2023/08/07 11:03:43;;;;;;;3.08;0.13;;;18.80;99.90;;;;;;5032121;28;20025;-78
2023/08/07 11:06:12;;;;;;;2.15;0.40;;;18.50;99.90;;;;;;5031986;28;20021;-77
2023/08/07 11:08:38;;;;;;;;;;;18.30;99.90;;;;;;5034186;28;20021;-77
2023/08/07 11:11:07;;;;;;;2.65;0.13;;;18.10;99.90;;;;;;5032623;28;19909;-77
2023/08/07 11:13:33;;;;;;;3.50;0.32;;;18.00;99.90;;;;;;5033370;28;20396;-77
2023/08/07 11:16:02;;;;;;;3.63;0.52;;;17.90;99.90;;;;;;5033266;28;20097;-77
2023/08/07 11:18:28;;;;;;;4.40;0.35;;;18.00;99.90;;;;;;5033347;28;20096;-77
2023/08/07 11:20:57;;;;;;;5.05;0.50;;;18.20;99.90;;;;;;5033469;28;20060;-77
2023/08/07 11:23:27;;;;;;;4.90;0.28;;;18.30;99.90;;;;;;5033474;28;20032;-77
2023/08/07 11:25:53;;;;;;;1.98;0.10;;;18.30;99.90;;;;;;5031843;28;20053;-77
2023/08/07 11:28:20;;;;;;;4.20;0.20;;;18.70;99.90;;;;;;5033044;28;20033;-77
2023/08/07 11:30:49;;;;;;;2.17;0.20;;;18.40;99.90;;;;;;5033317;28;20025;-77
2023/08/07 11:33:15;;;;;;;3.58;0.00;;;18.50;99.90;;;;;;5031779;28;20056;-77
2023/08/07 11:35:42;;;;;;;3.20;0.32;;;18.60;99.90;;;;;;5031956;28;20438;-77
2023/08/07 11:38:08;;;;;;;1.52;0.28;;;18.70;99.90;;;;;;5033091;28;20096;-77
2023/08/07 11:40:34;;;;;;;4.20;0.30;;;18.80;99.90;;;;;;5031902;28;20053;-77
2023/08/07 11:43:00;;;;;;;4.40;0.50;;;19.20;99.90;;;;;;5033149;28;20029;-77
2023/08/07 11:45:26;;;;;;;11.88;1.45;;;20.30;99.90;;;;;;5033620;28;20024;-77
2023/08/07 11:47:52;;;;;;;2.35;0.10;;;20.00;99.90;;;;;;5033173;28;20495;-77
2023/08/07 11:50:17;;;;;;;4.72;0.35;;;20.40;99.90;;;;;;5037559;28;20030;-78
2023/08/07 11:52:43;;;;;;;2.75;0.10;;;20.40;99.90;;;;;;5039231;28;20029;-78
2023/08/07 11:55:09;;;;;;;2.55;0.35;;;20.50;99.90;;;;;;5037096;28;20072;-78
2023/08/07 11:57:38;;;;;;;3.60;0.30;;;20.40;99.90;;;;;;5037739;28;20032;-77
2023/08/07 12:00:13;;;;;;;4.50;0.30;;;20.20;99.90;;;;;;5038091;28;20377;-78
2023/08/07 12:02:44;;;;;;;3.15;0.10;;;19.90;99.90;;;;;;5036680;28;20025;-78
2023/08/07 12:05:11;;;;;;;4.90;0.20;;;19.70;99.90;;;;;;5036262;28;20068;-78
2023/08/07 12:07:40;;;;;;;4.65;0.00;;;20.00;99.90;;;;;;5037322;28;20053;-78
2023/08/07 12:10:10;;;;;;;3.85;0.22;;;19.50;99.90;;;;;;5037480;28;20032;-78
2023/08/07 12:12:37;;;;;;;4.70;0.00;;;19.30;99.90;;;;;;5036273;28;20025;-78
2023/08/07 12:15:08;;;;;;;2.15;0.25;;;19.60;99.90;;;;;;5037459;28;20400;-78
2023/08/07 12:17:33;;;;;;;1.60;0.00;;;19.60;99.90;;;;;;5038194;28;20461;-78
2023/08/07 12:19:59;;;;;;;6.03;1.00;;;19.60;99.90;;;;;;5036805;28;20104;-76
2023/08/07 12:22:28;;;;;;;2.35;0.22;;;19.90;99.90;;;;;;5037827;28;20022;-78
2023/08/07 12:24:54;;;;;;;1.20;0.13;;;20.30;99.90;;;;;;5037907;28;20151;-77
2023/08/07 12:27:19;;;;;;;10.23;0.35;;;21.10;99.90;;;;;;5035366;28;20040;-77
2023/08/07 12:29:45;;;;;;;2.17;0.35;;;21.40;99.90;;;;;;5037072;28;20026;-78
2023/08/07 12:32:11;;;;;;;4.25;0.20;;;21.90;99.90;;;;;;5037741;28;20476;-77
2023/08/07 12:34:37;;;;;;;4.60;0.45;;;22.10;99.90;;;;;;5036963;28;20445;-78
2023/08/07 12:37:04;;;;;;;0.45;0.00;;;22.50;99.90;;;;;;5036638;28;20365;-78
2023/08/07 12:39:30;;;;;;;1.90;0.00;;;22.70;99.90;;;;;;5036147;28;20079;-77
2023/08/07 12:41:55;;;;;;;3.30;0.30;;;22.50;99.90;;;;;;5035575;28;20492;-76
2023/08/07 12:44:21;;;;;;;2.22;0.13;;;22.60;99.90;;;;;;5035991;28;20102;-78